createdAt,value
2018-04-18T00:00:47.727Z,4.00
2018-04-18T00:03:15.399Z,5.30
2018-04-18T00:05:43.048Z,3.20
2018-04-18T00:08:10.698Z,3.60
2018-04-18T00:10:38.325Z,3.30
2018-04-18T00:13:05.982Z,3.00
2018-04-18T00:15:33.590Z,4.10
2018-04-18T00:18:01.263Z,2.80
2018-04-18T00:20:28.878Z,3.40
2018-04-18T00:22:56.523Z,2.40
2018-04-18T00:25:24.148Z,2.30
2018-04-18T00:27:51.800Z,2.37
2018-04-18T00:30:19.416Z,3.07
2018-04-18T00:32:47.072Z,2.97
2018-04-18T00:35:14.726Z,3.63
2018-04-18T00:37:42.408Z,2.90
2018-04-18T00:40:10.046Z,2.53
2018-04-18T00:42:37.698Z,2.83
2018-04-18T00:45:05.323Z,3.13
2018-04-18T00:47:33.001Z,3.03
2018-04-18T00:50:00.610Z,2.70
2018-04-18T00:52:28.272Z,2.93
2018-04-18T00:54:55.893Z,3.83
2018-04-18T00:57:23.500Z,3.00
2018-04-18T00:59:51.157Z,2.87
2018-04-18T01:02:18.762Z,3.30
2018-04-18T01:04:46.441Z,3.37
2018-04-18T01:07:14.079Z,3.67
2018-04-18T01:09:41.788Z,2.83
2018-04-18T01:12:09.406Z,3.30
2018-04-18T01:14:37.118Z,3.50
2018-04-18T01:17:04.737Z,3.43
2018-04-18T01:19:32.450Z,2.67
2018-04-18T01:22:00.060Z,3.70
2018-04-18T01:24:27.740Z,2.47
2018-04-18T01:26:55.469Z,2.87
2018-04-18T01:29:23.188Z,3.97
2018-04-18T01:31:50.829Z,3.77
2018-04-18T01:34:18.488Z,2.80
2018-04-18T01:36:46.158Z,3.17
2018-04-18T01:39:13.804Z,2.70
2018-04-18T01:41:41.467Z,3.10
2018-04-18T01:44:09.128Z,4.67
2018-04-18T01:46:36.858Z,4.83
2018-04-18T01:49:16.331Z,4.00
2018-04-18T01:51:43.942Z,3.27
2018-04-18T01:54:11.622Z,4.03
2018-04-18T01:56:39.239Z,3.30
2018-04-18T01:59:06.886Z,3.30
2018-04-18T02:01:34.519Z,3.47
2018-04-18T02:04:02.186Z,2.80
2018-04-18T02:06:29.798Z,4.00
2018-04-18T02:08:57.591Z,2.40
2018-04-18T02:11:25.219Z,3.00
2018-04-18T02:13:52.881Z,3.73
2018-04-18T02:16:20.490Z,4.40
2018-04-18T02:18:48.148Z,4.20
2018-04-18T02:21:15.777Z,3.20
2018-04-18T02:23:43.434Z,4.17
2018-04-18T02:26:11.067Z,3.07
2018-04-18T02:28:38.766Z,3.20
2018-04-18T02:31:06.372Z,2.63
2018-04-18T02:33:34.067Z,3.53
2018-04-18T02:36:01.727Z,3.73
2018-04-18T02:38:29.377Z,3.17
2018-04-18T02:40:57.081Z,3.60
2018-04-18T02:43:24.742Z,3.60
2018-04-18T02:45:52.355Z,3.30
2018-04-18T02:48:20.050Z,4.03
2018-04-18T02:50:47.715Z,5.10
2018-04-18T02:53:15.365Z,2.97
2018-04-18T02:55:42.985Z,2.90
2018-04-18T02:58:10.631Z,3.50
2018-04-18T03:00:38.235Z,2.40
2018-04-18T03:03:05.922Z,2.80
2018-04-18T03:05:33.526Z,3.90
2018-04-18T03:08:01.197Z,3.60
2018-04-18T03:10:28.811Z,3.43
2018-04-18T03:12:56.428Z,3.30
2018-04-18T03:15:24.084Z,3.20
2018-04-18T03:17:51.700Z,3.10
2018-04-18T03:20:19.405Z,4.77
2018-04-18T03:22:47.015Z,3.47
2018-04-18T03:25:14.687Z,2.63
2018-04-18T03:27:42.311Z,2.57
2018-04-18T03:30:09.963Z,2.37
2018-04-18T03:32:37.591Z,2.67
2018-04-18T03:35:05.246Z,2.83
2018-04-18T03:37:32.858Z,3.97
2018-04-18T03:40:00.511Z,2.30
2018-04-18T03:42:28.147Z,3.20
2018-04-18T03:44:55.847Z,3.00
2018-04-18T03:47:23.462Z,2.20
2018-04-18T03:49:51.115Z,4.27
2018-04-18T03:52:18.727Z,3.47
2018-04-18T03:54:46.388Z,2.63
2018-04-18T03:57:13.997Z,3.50
2018-04-18T03:59:41.668Z,3.17
2018-04-18T04:02:09.286Z,3.27
2018-04-18T04:04:36.983Z,3.27
2018-04-18T04:07:04.600Z,4.10
2018-04-18T04:09:32.263Z,3.93
2018-04-18T04:11:59.866Z,3.97
2018-04-18T04:14:27.506Z,4.50
2018-04-18T04:20:13.698Z,2.70
2018-04-18T04:22:53.091Z,3.50
2018-04-18T04:25:20.755Z,2.63
2018-04-18T04:27:48.386Z,2.80
2018-04-18T04:30:16.086Z,3.20
2018-04-18T04:32:43.739Z,4.23
2018-04-18T04:35:11.457Z,3.47
2018-04-18T04:37:39.134Z,3.10
2018-04-18T04:40:06.860Z,2.93
2018-04-18T04:42:34.494Z,3.50
2018-04-18T04:45:02.157Z,2.40
2018-04-18T04:47:29.782Z,4.43
2018-04-18T04:49:57.474Z,3.70
2018-04-18T04:52:25.097Z,3.40
2018-04-18T04:54:52.767Z,3.20
2018-04-18T04:57:20.394Z,2.80
2018-04-18T04:59:48.068Z,3.50
2018-04-18T05:02:15.783Z,2.87
2018-04-18T05:04:43.465Z,2.80
2018-04-18T05:07:11.150Z,4.27
2018-04-18T05:09:38.847Z,2.77
2018-04-18T05:12:06.483Z,2.80
2018-04-18T05:14:34.156Z,3.63
2018-04-18T05:17:01.777Z,3.00
2018-04-18T05:19:29.434Z,3.20
2018-04-18T05:21:57.047Z,3.40
2018-04-18T05:24:24.726Z,3.30
2018-04-18T05:26:52.335Z,2.83
2018-04-18T05:29:20.007Z,3.70
2018-04-18T05:31:47.667Z,4.00
2018-04-18T05:34:15.287Z,3.87
2018-04-18T05:36:42.960Z,3.73
2018-04-18T05:39:10.580Z,3.93
2018-04-18T05:41:38.308Z,3.80
2018-04-18T05:44:05.920Z,3.50
2018-04-18T05:46:33.589Z,3.40
2018-04-18T05:49:01.198Z,4.20
2018-04-18T05:51:28.889Z,3.67
2018-04-18T05:53:56.544Z,4.37
2018-04-18T05:56:24.262Z,3.33
2018-04-18T05:58:51.907Z,3.77
2018-04-18T06:01:19.575Z,4.00
2018-04-18T06:03:47.190Z,3.70
2018-04-18T06:06:14.865Z,3.63
2018-04-18T06:08:42.640Z,3.80
2018-04-18T06:11:10.382Z,3.57
2018-04-18T06:13:38.003Z,3.63
2018-04-18T06:16:05.655Z,3.77
2018-04-18T06:18:33.340Z,3.60
2018-04-18T06:21:01.209Z,3.40
2018-04-18T06:23:28.873Z,3.70
2018-04-18T06:25:56.547Z,4.93
2018-04-18T06:28:24.160Z,2.80
2018-04-18T06:30:51.833Z,3.70
2018-04-18T06:33:19.447Z,2.50
2018-04-18T06:35:47.150Z,3.60
2018-04-18T06:38:14.789Z,2.70
2018-04-18T06:40:42.488Z,5.30
2018-04-18T06:43:10.146Z,3.30
2018-04-18T06:45:37.803Z,3.30
2018-04-18T06:48:05.424Z,3.50
2018-04-18T06:50:33.091Z,3.97
2018-04-18T06:53:00.785Z,4.87
2018-04-18T06:55:28.468Z,3.40
2018-04-18T06:57:56.084Z,3.30
2018-04-18T07:00:23.746Z,3.67
2018-04-18T07:02:51.350Z,2.97
2018-04-18T07:05:19.003Z,4.57
2018-04-18T07:07:46.618Z,3.80
2018-04-18T07:10:14.300Z,3.30
2018-04-18T07:12:41.982Z,4.23
2018-04-18T07:15:09.639Z,3.83
2018-04-18T07:17:37.254Z,3.40
2018-04-18T07:20:04.911Z,4.27
2018-04-18T07:22:32.531Z,3.30
2018-04-18T07:25:00.377Z,3.17
2018-04-18T07:27:28.018Z,2.57
2018-04-18T07:29:55.709Z,3.13
2018-04-18T07:32:23.331Z,3.50
2018-04-18T07:34:51.046Z,3.30
2018-04-18T07:37:18.663Z,2.90
2018-04-18T07:39:46.279Z,2.87
2018-04-18T07:42:13.969Z,2.93
2018-04-18T07:44:41.589Z,3.57
2018-04-18T07:47:09.242Z,3.37
2018-04-18T07:49:36.850Z,3.33
2018-04-18T07:52:04.511Z,3.60
2018-04-18T07:54:32.130Z,3.87
2018-04-18T07:56:59.783Z,2.90
2018-04-18T07:59:27.398Z,4.50
2018-04-18T08:01:55.104Z,4.30
2018-04-18T08:04:22.711Z,3.73
2018-04-18T08:06:50.372Z,2.60
2018-04-18T08:09:17.993Z,3.10
2018-04-18T08:11:45.646Z,3.30
2018-04-18T08:14:13.258Z,3.37
2018-04-18T08:16:40.963Z,3.23
2018-04-18T08:19:08.583Z,2.70
2018-04-18T08:21:36.239Z,3.10
2018-04-18T08:24:03.858Z,2.77
2018-04-18T08:26:31.539Z,3.70
2018-04-18T08:28:59.161Z,3.53
2018-04-18T08:31:26.815Z,2.97
2018-04-18T08:33:54.411Z,2.80
2018-04-18T08:36:22.114Z,3.83
2018-04-18T08:38:49.719Z,3.70
2018-04-18T08:41:17.375Z,3.10
2018-04-18T08:43:44.990Z,2.93
2018-04-18T08:46:12.662Z,4.27
2018-04-18T08:48:40.279Z,2.80
2018-04-18T08:51:07.931Z,3.30
2018-04-18T08:53:35.547Z,3.20
2018-04-18T08:56:03.193Z,3.17
2018-04-18T08:58:30.801Z,3.13
2018-04-18T09:00:58.462Z,3.00
2018-04-18T09:03:26.070Z,5.10
2018-04-18T09:05:53.719Z,3.20
2018-04-18T09:08:21.331Z,3.23
2018-04-18T09:10:48.982Z,2.87
2018-04-18T09:13:16.589Z,3.07
2018-04-18T09:15:44.291Z,3.67
2018-04-18T09:18:11.907Z,2.77
2018-04-18T09:20:39.572Z,2.80
2018-04-18T09:23:07.184Z,2.50
2018-04-18T09:25:34.834Z,3.43
2018-04-18T09:28:02.448Z,2.93
2018-04-18T09:30:30.102Z,2.60
2018-04-18T09:32:57.741Z,2.23
2018-04-18T09:35:25.394Z,2.77
2018-04-18T09:37:53.042Z,2.43
2018-04-18T09:40:20.711Z,2.27
2018-04-18T09:42:48.330Z,2.20
2018-04-18T09:45:15.951Z,5.00
2018-04-18T09:47:43.615Z,2.20
2018-04-18T09:50:11.262Z,1.90
2018-04-18T09:52:38.922Z,2.20
2018-04-18T09:55:06.537Z,2.33
2018-04-18T09:57:34.272Z,1.63
2018-04-18T10:00:01.887Z,2.10
2018-04-18T10:02:29.578Z,1.73
2018-04-18T10:05:11.891Z,2.90
2018-04-18T10:07:39.543Z,2.00
2018-04-18T10:10:07.162Z,4.17
2018-04-18T10:12:34.814Z,4.27
2018-04-18T10:15:02.446Z,2.20
2018-04-18T10:17:30.106Z,2.70
2018-04-18T10:19:57.733Z,3.20
2018-04-18T10:22:25.382Z,3.30
2018-04-18T10:24:52.986Z,2.87
2018-04-18T10:27:20.631Z,2.93
2018-04-18T10:29:48.269Z,2.53
2018-04-18T10:32:15.931Z,3.10
2018-04-18T10:34:43.546Z,3.40
2018-04-18T10:37:11.239Z,2.20
2018-04-18T10:39:38.895Z,2.40
2018-04-18T10:42:06.550Z,2.40
2018-04-18T10:44:34.177Z,2.27
2018-04-18T10:47:01.835Z,2.10
2018-04-18T10:49:29.442Z,2.43
2018-04-18T10:51:57.123Z,2.30
2018-04-18T10:54:24.782Z,3.20
2018-04-18T10:56:52.438Z,2.40
2018-04-18T10:59:20.045Z,2.33
2018-04-18T11:01:47.698Z,2.40
2018-04-18T11:04:15.324Z,2.00
2018-04-18T11:06:42.975Z,2.40
2018-04-18T11:09:10.596Z,3.37
2018-04-18T11:11:38.255Z,1.10
2018-04-18T11:14:05.873Z,1.73
2018-04-18T11:16:33.541Z,2.00
2018-04-18T11:19:01.144Z,1.70
2018-04-18T11:21:28.804Z,1.40
2018-04-18T11:23:56.423Z,1.30
2018-04-18T11:26:24.083Z,1.90
2018-04-18T11:28:51.711Z,2.90
2018-04-18T11:31:19.366Z,2.60
2018-04-18T11:33:47.031Z,1.50
2018-04-18T11:36:14.738Z,1.57
2018-04-18T11:38:42.332Z,1.77
2018-04-18T11:41:09.981Z,1.77
2018-04-18T11:43:37.624Z,2.57
2018-04-18T11:46:05.291Z,1.20
2018-04-18T11:48:32.898Z,2.07
2018-04-18T11:51:00.573Z,1.87
2018-04-18T11:53:28.225Z,1.50
2018-04-18T11:55:55.832Z,1.53
2018-04-18T11:58:23.617Z,1.60
2018-04-18T12:00:51.242Z,0.90
2018-04-18T12:03:18.906Z,2.17
2018-04-18T12:05:46.532Z,1.30
2018-04-18T12:08:14.193Z,2.07
2018-04-18T12:10:41.811Z,3.13
2018-04-18T12:13:09.467Z,2.30
2018-04-18T12:15:37.083Z,2.00
2018-04-18T12:18:04.730Z,1.53
2018-04-18T12:20:32.437Z,1.97
2018-04-18T12:23:00.110Z,1.37
2018-04-18T12:25:27.750Z,1.77
2018-04-18T12:27:55.401Z,1.40
2018-04-18T12:30:23.012Z,2.17
2018-04-18T12:32:50.663Z,2.67
2018-04-18T12:35:18.299Z,1.40
2018-04-18T12:37:45.957Z,1.00
2018-04-18T12:40:13.603Z,0.60
2018-04-18T12:42:41.253Z,1.60
2018-04-18T12:45:08.881Z,1.17
2018-04-18T12:47:36.530Z,1.63
2018-04-18T12:50:04.160Z,1.20
2018-04-18T12:52:31.822Z,1.00
2018-04-18T12:54:59.469Z,1.00
2018-04-18T12:57:27.130Z,1.17
2018-04-18T12:59:54.746Z,1.70
2018-04-18T13:02:22.411Z,1.50
2018-04-18T13:04:50.038Z,1.00
2018-04-18T13:07:17.728Z,1.47
2018-04-18T13:09:45.326Z,1.87
2018-04-18T13:12:12.988Z,2.33
2018-04-18T13:14:40.620Z,1.63
2018-04-18T13:17:08.279Z,3.60
2018-04-18T13:19:35.899Z,1.83
2018-04-18T13:22:03.574Z,1.40
2018-04-18T13:24:31.202Z,1.40
2018-04-18T13:26:58.860Z,1.90
2018-04-18T13:29:26.480Z,1.83
2018-04-18T13:31:54.138Z,1.87
2018-04-18T13:34:21.746Z,2.03
2018-04-18T13:36:49.396Z,2.20
2018-04-18T13:39:17.024Z,1.50
2018-04-18T13:41:44.678Z,2.47
2018-04-18T13:44:12.282Z,1.03
2018-04-18T13:46:39.216Z,1.90
2018-04-18T13:49:06.831Z,1.40
2018-04-18T13:51:34.490Z,1.77
2018-04-18T13:54:02.123Z,1.50
2018-04-18T13:56:29.735Z,2.07
2018-04-18T13:58:57.416Z,3.20
2018-04-18T14:01:25.039Z,2.40
2018-04-18T14:03:52.710Z,1.30
2018-04-18T14:06:20.326Z,2.03
2018-04-18T14:08:47.995Z,2.30
2018-04-18T14:11:15.591Z,1.70
2018-04-18T14:13:43.259Z,1.23
2018-04-18T14:16:10.873Z,1.90
2018-04-18T14:18:38.518Z,1.90
2018-04-18T14:21:06.169Z,2.40
2018-04-18T14:23:33.835Z,4.80
2018-04-18T14:26:01.460Z,1.70
2018-04-18T14:28:29.118Z,1.40
2018-04-18T14:30:56.739Z,1.70
2018-04-18T14:33:24.401Z,1.33
2018-04-18T14:35:52.023Z,1.87
2018-04-18T14:38:19.683Z,3.50
2018-04-18T14:40:47.302Z,1.77
2018-04-18T14:43:14.960Z,1.53
2018-04-18T14:45:42.583Z,2.63
2018-04-18T14:48:10.237Z,1.90
2018-04-18T14:50:37.838Z,1.90
2018-04-18T14:53:05.488Z,1.50
2018-04-18T14:55:33.105Z,2.77
2018-04-18T14:58:00.770Z,1.80
2018-04-18T15:00:28.387Z,4.33
2018-04-18T15:02:56.035Z,1.70
2018-04-18T15:05:23.677Z,1.63
2018-04-18T15:07:51.337Z,3.17
2018-04-18T15:10:18.966Z,2.03
2018-04-18T15:12:46.639Z,1.90
2018-04-18T15:15:14.257Z,2.10
2018-04-18T15:17:41.909Z,2.20
2018-04-18T15:20:09.525Z,1.80
2018-04-18T15:22:37.176Z,2.60
2018-04-18T15:25:04.785Z,3.23
2018-04-18T15:27:32.438Z,1.80
2018-04-18T15:30:00.051Z,1.50
2018-04-18T15:32:27.709Z,1.80
2018-04-18T15:34:55.319Z,1.83
2018-04-18T15:37:22.982Z,1.40
2018-04-18T15:39:50.601Z,2.20
2018-04-18T15:42:18.283Z,0.83
2018-04-18T15:44:45.891Z,1.60
2018-04-18T15:47:13.551Z,1.20
2018-04-18T15:49:41.171Z,1.80
2018-04-18T15:52:08.835Z,1.23
2018-04-18T15:54:36.438Z,1.47
2018-04-18T15:57:04.116Z,1.70
2018-04-18T15:59:31.736Z,2.67
2018-04-18T16:01:59.370Z,1.70
2018-04-18T16:04:27.041Z,1.60
2018-04-18T16:06:54.657Z,1.67
2018-04-18T16:09:22.321Z,2.17
2018-04-18T16:11:49.952Z,1.80
2018-04-18T16:14:17.618Z,2.20
2018-04-18T16:16:45.231Z,1.77
2018-04-18T16:19:12.901Z,1.77
2018-04-18T16:21:40.514Z,1.73
2018-04-18T16:24:08.170Z,2.70
2018-04-18T16:26:35.810Z,2.50
2018-04-18T16:29:15.388Z,1.30
2018-04-18T16:31:43.026Z,1.60
2018-04-18T16:34:10.744Z,1.60
2018-04-18T16:36:38.403Z,2.03
2018-04-18T16:39:06.130Z,2.00
2018-04-18T16:41:33.800Z,1.77
2018-04-18T16:44:01.453Z,3.40
2018-04-18T16:46:29.062Z,2.07
2018-04-18T16:48:56.716Z,2.30
2018-04-18T16:51:24.325Z,1.60
2018-04-18T16:53:51.985Z,1.90
2018-04-18T16:56:19.603Z,2.07
2018-04-18T16:58:47.256Z,1.80
2018-04-18T17:01:14.876Z,1.70
2018-04-18T17:03:42.499Z,1.60
2018-04-18T17:06:10.153Z,1.40
2018-04-18T17:08:37.778Z,1.60
2018-04-18T17:11:05.431Z,1.57
2018-04-18T17:13:33.060Z,3.97
2018-04-18T17:16:00.760Z,1.40
2018-04-18T17:18:28.376Z,1.60
2018-04-18T17:20:56.093Z,1.40
2018-04-18T17:23:23.730Z,1.67
2018-04-18T17:25:51.378Z,1.60
2018-04-18T17:28:18.990Z,1.43
2018-04-18T17:30:46.639Z,1.60
2018-04-18T17:33:14.280Z,1.83
2018-04-18T17:35:41.967Z,1.63
2018-04-18T17:38:09.583Z,1.37
2018-04-18T17:40:37.244Z,1.30
2018-04-18T17:43:04.867Z,1.50
2018-04-18T17:45:32.523Z,1.50
2018-04-18T17:48:00.138Z,1.60
2018-04-18T17:50:27.830Z,1.50
2018-04-18T17:52:55.455Z,1.30
2018-04-18T17:55:23.100Z,1.50
2018-04-18T17:57:50.773Z,1.53
2018-04-18T18:00:18.441Z,1.67
2018-04-18T18:02:46.088Z,1.83
2018-04-18T18:05:13.759Z,1.80
2018-04-18T18:07:41.408Z,1.60
2018-04-18T18:10:09.028Z,1.50
2018-04-18T18:12:36.674Z,1.90
2018-04-18T18:15:04.340Z,2.00
2018-04-18T18:17:31.994Z,1.80
2018-04-18T18:19:59.634Z,3.37
2018-04-18T18:22:27.289Z,1.23
2018-04-18T18:24:54.942Z,1.70
2018-04-18T18:27:22.639Z,4.20
2018-04-18T18:29:50.291Z,2.97
2018-04-18T18:32:18.023Z,1.73
2018-04-18T18:34:45.630Z,1.50
2018-04-18T18:37:13.299Z,2.40
2018-04-18T18:39:40.918Z,1.97
2018-04-18T18:42:08.574Z,1.60
2018-04-18T18:44:36.195Z,1.90
2018-04-18T18:47:03.820Z,2.00
2018-04-18T18:49:31.471Z,1.83
2018-04-18T18:51:59.088Z,2.07
2018-04-18T18:54:26.739Z,1.60
2018-04-18T18:56:54.359Z,1.97
2018-04-18T18:59:22.032Z,1.70
2018-04-18T19:01:49.644Z,1.47
2018-04-18T19:04:17.320Z,2.60
2018-04-18T19:06:44.947Z,1.90
2018-04-18T19:09:12.619Z,2.20
2018-04-18T19:11:40.231Z,1.60
2018-04-18T19:14:07.898Z,1.90
2018-04-18T19:16:35.549Z,2.27
2018-04-18T19:19:03.206Z,1.73
2018-04-18T19:21:30.826Z,2.07
2018-04-18T19:23:58.476Z,2.33
2018-04-18T19:26:26.091Z,1.90
2018-04-18T19:28:53.751Z,2.10
2018-04-18T19:31:21.382Z,2.20
2018-04-18T19:33:49.070Z,1.60
2018-04-18T19:36:16.683Z,2.20
2018-04-18T19:38:44.339Z,1.80
2018-04-18T19:41:11.971Z,2.57
2018-04-18T19:43:39.755Z,1.87
2018-04-18T19:46:07.399Z,3.03
2018-04-18T19:48:35.106Z,2.53
2018-04-18T19:51:02.765Z,1.97
2018-04-18T19:53:30.430Z,2.50
2018-04-18T19:55:58.099Z,2.17
2018-04-18T19:58:25.766Z,2.30
2018-04-18T20:00:53.412Z,1.90
2018-04-18T20:03:21.090Z,2.20
2018-04-18T20:05:48.747Z,2.90
2018-04-18T20:08:16.407Z,2.10
2018-04-18T20:10:44.038Z,2.20
2018-04-18T20:13:11.741Z,2.40
2018-04-18T20:15:39.350Z,2.83
2018-04-18T20:18:07.015Z,2.20
2018-04-18T20:20:34.632Z,1.70
2018-04-18T20:23:02.256Z,2.10
2018-04-18T20:25:29.907Z,2.23
2018-04-18T20:27:57.531Z,2.10
2018-04-18T20:30:25.190Z,2.00
2018-04-18T20:32:52.856Z,2.10
2018-04-18T20:35:20.507Z,2.57
2018-04-18T20:37:48.118Z,2.47
2018-04-18T20:40:15.779Z,2.13
2018-04-18T20:42:55.419Z,2.60
2018-04-18T20:45:23.067Z,2.47
2018-04-18T20:47:50.670Z,2.40
2018-04-18T20:50:18.371Z,2.00
2018-04-18T20:52:46.075Z,2.70
2018-04-18T20:55:13.729Z,2.43
2018-04-18T20:57:41.342Z,2.80
2018-04-18T21:00:09.060Z,2.63
2018-04-18T21:02:36.677Z,2.47
2018-04-18T21:05:04.332Z,2.40
2018-04-18T21:07:31.938Z,3.90
2018-04-18T21:09:59.598Z,2.40
2018-04-18T21:12:27.259Z,2.60
2018-04-18T21:14:54.939Z,2.10
2018-04-18T21:17:22.568Z,2.90
2018-04-18T21:19:50.259Z,2.77
2018-04-18T21:22:18.176Z,2.77
2018-04-18T21:24:45.852Z,3.80
2018-04-18T21:27:13.490Z,3.20
2018-04-18T21:29:41.155Z,2.87
2018-04-18T21:32:08.778Z,2.87
2018-04-18T21:34:36.438Z,4.43
2018-04-18T21:37:04.069Z,2.87
2018-04-18T21:39:31.726Z,2.50
2018-04-18T21:41:59.334Z,3.37
2018-04-18T21:44:27.021Z,2.47
2018-04-18T21:46:54.686Z,2.57
2018-04-18T21:49:22.332Z,2.70
2018-04-18T21:51:49.942Z,3.50
2018-04-18T21:54:17.590Z,2.30
2018-04-18T21:56:45.200Z,2.57
2018-04-18T21:59:12.859Z,2.80
2018-04-18T22:01:40.472Z,2.67
2018-04-18T22:04:08.143Z,2.30
2018-04-18T22:06:35.787Z,2.43
2018-04-18T22:09:03.534Z,2.87
2018-04-18T22:11:31.147Z,2.63
2018-04-18T22:13:58.807Z,2.83
2018-04-18T22:16:26.438Z,2.77
2018-04-18T22:18:54.098Z,3.00
2018-04-18T22:21:21.719Z,2.50
2018-04-18T22:23:49.387Z,2.60
2018-04-18T22:26:16.999Z,2.93
2018-04-18T22:28:44.711Z,2.77
2018-04-18T22:31:12.358Z,2.20
2018-04-18T22:33:40.035Z,3.67
2018-04-18T22:36:07.721Z,2.77
2018-04-18T22:38:35.339Z,3.17
2018-04-18T22:41:02.996Z,3.20
2018-04-18T22:43:30.604Z,2.83
2018-04-18T22:45:58.266Z,3.07
2018-04-18T22:48:25.916Z,3.67
2018-04-18T22:50:53.575Z,3.23
2018-04-18T22:53:21.185Z,2.47
2018-04-18T22:55:48.843Z,3.03
2018-04-18T22:58:16.476Z,2.37
2018-04-18T23:00:44.175Z,2.83
2018-04-18T23:03:11.794Z,2.60
2018-04-18T23:05:39.468Z,3.13
2018-04-18T23:08:07.129Z,2.50
2018-04-18T23:10:34.766Z,3.30
2018-04-18T23:13:02.392Z,2.20
2018-04-18T23:15:30.048Z,3.80
2018-04-18T23:17:57.683Z,2.83
2018-04-18T23:20:25.326Z,2.63
2018-04-18T23:22:52.936Z,2.80
2018-04-18T23:25:20.579Z,3.33
2018-04-18T23:27:48.186Z,3.27
2018-04-18T23:30:15.843Z,2.83
2018-04-18T23:32:43.490Z,2.80
2018-04-18T23:35:11.153Z,2.67
2018-04-18T23:37:38.794Z,3.07
2018-04-18T23:40:06.443Z,2.73
2018-04-18T23:42:34.096Z,2.53
2018-04-18T23:45:01.785Z,3.63
2018-04-18T23:47:29.461Z,3.80
2018-04-18T23:49:57.186Z,3.60
2018-04-18T23:52:24.827Z,2.80
2018-04-18T23:54:52.508Z,2.37
2018-04-18T23:57:20.129Z,2.57
2018-04-18T23:59:47.794Z,2.50
